sensor_id;sensor_type;location;lat;lon;timestamp;P1;durP1;ratioP1;P2;durP2;ratioP2
60478;SDS011;46321;48.398;11.754;2022-08-24T00:50:11;5.20;;;4.03;;
60478;SDS011;46321;48.398;11.754;2022-08-24T00:52:48;5.53;;;4.40;;
60478;SDS011;46321;48.398;11.754;2022-08-24T00:55:40;7.00;;;4.60;;
60478;SDS011;46321;48.398;11.754;2022-08-24T00:58:12;5.88;;;4.45;;
60478;SDS011;46321;48.398;11.754;2022-08-24T01:00:41;8.10;;;4.10;;
60478;SDS011;46321;48.398;11.754;2022-08-24T01:03:13;5.72;;;4.65;;
60478;SDS011;46321;48.398;11.754;2022-08-24T01:05:39;6.47;;;4.40;;
60478;SDS011;46321;48.398;11.754;2022-08-24T01:08:06;8.40;;;4.72;;
60478;SDS011;46321;48.398;11.754;2022-08-24T01:10:34;6.40;;;4.10;;
60478;SDS011;46321;48.398;11.754;2022-08-24T01:13:12;8.32;;;4.60;;
60478;SDS011;46321;48.398;11.754;2022-08-24T01:15:39;5.85;;;4.55;;
60478;SDS011;46321;48.398;11.754;2022-08-24T01:18:12;5.95;;;4.60;;
60478;SDS011;46321;48.398;11.754;2022-08-24T01:26:18;9.13;;;4.87;;
60478;SDS011;46321;48.398;11.754;2022-08-24T01:28:49;5.85;;;4.28;;
60478;SDS011;46321;48.398;11.754;2022-08-24T01:31:20;5.00;;;4.20;;
60478;SDS011;46321;48.398;11.754;2022-08-24T01:33:47;5.90;;;4.20;;
60478;SDS011;46321;48.398;11.754;2022-08-24T01:36:49;7.20;;;4.55;;
60478;SDS011;46321;48.398;11.754;2022-08-24T01:39:11;8.05;;;4.15;;
60478;SDS011;46321;48.398;11.754;2022-08-24T01:41:40;4.55;;;3.72;;
60478;SDS011;46321;48.398;11.754;2022-08-24T01:44:06;5.28;;;4.03;;
60478;SDS011;46321;48.398;11.754;2022-08-24T01:46:32;5.70;;;4.15;;
60478;SDS011;46321;48.398;11.754;2022-08-24T01:48:58;5.82;;;4.28;;
60478;SDS011;46321;48.398;11.754;2022-08-24T01:51:24;5.82;;;4.35;;
60478;SDS011;46321;48.398;11.754;2022-08-24T01:53:53;7.10;;;4.40;;
60478;SDS011;46321;48.398;11.754;2022-08-24T01:56:18;5.25;;;4.43;;
60478;SDS011;46321;48.398;11.754;2022-08-24T01:58:44;7.63;;;4.40;;
60478;SDS011;46321;48.398;11.754;2022-08-24T02:01:11;5.15;;;4.55;;
60478;SDS011;46321;48.398;11.754;2022-08-24T02:03:37;5.78;;;4.55;;
60478;SDS011;46321;48.398;11.754;2022-08-24T02:06:03;6.53;;;4.35;;
60478;SDS011;46321;48.398;11.754;2022-08-24T02:08:29;6.28;;;4.57;;
60478;SDS011;46321;48.398;11.754;2022-08-24T02:10:54;5.63;;;4.18;;
60478;SDS011;46321;48.398;11.754;2022-08-24T02:13:19;5.72;;;4.40;;
60478;SDS011;46321;48.398;11.754;2022-08-24T02:15:45;5.88;;;4.55;;
60478;SDS011;46321;48.398;11.754;2022-08-24T02:18:10;6.43;;;4.32;;
60478;SDS011;46321;48.398;11.754;2022-08-24T02:20:36;5.43;;;4.22;;
60478;SDS011;46321;48.398;11.754;2022-08-24T02:23:02;6.45;;;4.55;;
60478;SDS011;46321;48.398;11.754;2022-08-24T02:25:28;6.20;;;4.20;;
60478;SDS011;46321;48.398;11.754;2022-08-24T02:27:55;5.70;;;4.30;;
60478;SDS011;46321;48.398;11.754;2022-08-24T02:30:22;8.40;;;4.47;;
60478;SDS011;46321;48.398;11.754;2022-08-24T02:32:47;4.68;;;3.97;;
60478;SDS011;46321;48.398;11.754;2022-08-24T02:35:12;5.60;;;4.07;;
60478;SDS011;46321;48.398;11.754;2022-08-24T02:37:38;4.97;;;3.95;;
60478;SDS011;46321;48.398;11.754;2022-08-24T02:40:04;7.20;;;4.10;;
60478;SDS011;46321;48.398;11.754;2022-08-24T02:42:31;7.60;;;4.15;;
60478;SDS011;46321;48.398;11.754;2022-08-24T02:44:56;5.95;;;4.57;;
60478;SDS011;46321;48.398;11.754;2022-08-24T02:47:22;7.65;;;4.35;;
60478;SDS011;46321;48.398;11.754;2022-08-24T02:49:47;5.50;;;4.50;;
60478;SDS011;46321;48.398;11.754;2022-08-24T02:52:12;5.63;;;4.35;;
60478;SDS011;46321;48.398;11.754;2022-08-24T02:54:38;5.65;;;4.47;;
60478;SDS011;46321;48.398;11.754;2022-08-24T02:57:04;7.75;;;4.50;;
60478;SDS011;46321;48.398;11.754;2022-08-24T02:59:29;5.70;;;4.30;;
60478;SDS011;46321;48.398;11.754;2022-08-24T03:01:54;5.63;;;3.85;;
60478;SDS011;46321;48.398;11.754;2022-08-24T03:04:20;6.72;;;4.75;;
60478;SDS011;46321;48.398;11.754;2022-08-24T03:06:45;6.47;;;4.75;;
60478;SDS011;46321;48.398;11.754;2022-08-24T03:09:11;5.88;;;4.78;;
60478;SDS011;46321;48.398;11.754;2022-08-24T03:11:37;6.10;;;4.80;;
60478;SDS011;46321;48.398;11.754;2022-08-24T03:14:03;5.40;;;4.22;;
60478;SDS011;46321;48.398;11.754;2022-08-24T03:16:29;5.20;;;4.22;;
60478;SDS011;46321;48.398;11.754;2022-08-24T03:18:55;5.53;;;4.55;;
60478;SDS011;46321;48.398;11.754;2022-08-24T03:21:21;6.93;;;4.20;;
60478;SDS011;46321;48.398;11.754;2022-08-24T03:23:46;5.90;;;4.53;;
60478;SDS011;46321;48.398;11.754;2022-08-24T03:26:12;6.25;;;4.43;;
60478;SDS011;46321;48.398;11.754;2022-08-24T03:28:38;5.55;;;4.55;;
60478;SDS011;46321;48.398;11.754;2022-08-24T03:31:03;9.23;;;4.40;;
60478;SDS011;46321;48.398;11.754;2022-08-24T03:33:29;6.95;;;4.40;;
60478;SDS011;46321;48.398;11.754;2022-08-24T03:35:54;6.15;;;4.28;;
60478;SDS011;46321;48.398;11.754;2022-08-24T03:38:19;8.48;;;4.70;;
60478;SDS011;46321;48.398;11.754;2022-08-24T03:40:45;7.28;;;4.70;;
60478;SDS011;46321;48.398;11.754;2022-08-24T03:43:10;5.18;;;4.25;;
60478;SDS011;46321;48.398;11.754;2022-08-24T03:45:56;6.93;;;4.93;;
60478;SDS011;46321;48.398;11.754;2022-08-24T03:48:22;6.47;;;4.82;;
60478;SDS011;46321;48.398;11.754;2022-08-24T03:50:48;10.20;;;5.15;;
60478;SDS011;46321;48.398;11.754;2022-08-24T03:53:13;5.53;;;4.70;;
60478;SDS011;46321;48.398;11.754;2022-08-24T03:55:39;7.07;;;4.55;;
60478;SDS011;46321;48.398;11.754;2022-08-24T03:58:05;7.13;;;5.10;;
60478;SDS011;46321;48.398;11.754;2022-08-24T04:00:30;10.52;;;5.22;;
60478;SDS011;46321;48.398;11.754;2022-08-24T04:02:55;8.63;;;5.38;;
60478;SDS011;46321;48.398;11.754;2022-08-24T04:05:20;7.60;;;4.63;;
60478;SDS011;46321;48.398;11.754;2022-08-24T04:07:46;9.25;;;5.15;;
60478;SDS011;46321;48.398;11.754;2022-08-24T04:10:11;7.28;;;4.80;;
60478;SDS011;46321;48.398;11.754;2022-08-24T04:12:38;9.55;;;5.28;;
60478;SDS011;46321;48.398;11.754;2022-08-24T04:15:03;6.07;;;4.95;;
60478;SDS011;46321;48.398;11.754;2022-08-24T04:17:29;7.47;;;5.05;;
60478;SDS011;46321;48.398;11.754;2022-08-24T04:19:54;6.43;;;4.88;;
60478;SDS011;46321;48.398;11.754;2022-08-24T04:22:26;6.18;;;4.68;;
60478;SDS011;46321;48.398;11.754;2022-08-24T04:24:54;8.40;;;4.88;;
60478;SDS011;46321;48.398;11.754;2022-08-24T04:27:20;5.75;;;4.40;;
60478;SDS011;46321;48.398;11.754;2022-08-24T04:29:46;8.25;;;4.85;;
60478;SDS011;46321;48.398;11.754;2022-08-24T04:32:12;6.10;;;4.78;;
60478;SDS011;46321;48.398;11.754;2022-08-24T04:34:39;9.35;;;4.97;;
60478;SDS011;46321;48.398;11.754;2022-08-24T04:37:05;6.57;;;4.80;;
60478;SDS011;46321;48.398;11.754;2022-08-24T04:39:31;6.30;;;4.65;;
60478;SDS011;46321;48.398;11.754;2022-08-24T04:41:57;6.50;;;4.80;;
60478;SDS011;46321;48.398;11.754;2022-08-24T04:44:22;8.25;;;5.05;;
60478;SDS011;46321;48.398;11.754;2022-08-24T04:46:47;7.78;;;5.03;;
60478;SDS011;46321;48.398;11.754;2022-08-24T04:49:13;8.88;;;4.93;;
60478;SDS011;46321;48.398;11.754;2022-08-24T04:51:38;7.53;;;5.50;;
60478;SDS011;46321;48.398;11.754;2022-08-24T04:54:04;9.45;;;5.68;;
60478;SDS011;46321;48.398;11.754;2022-08-24T04:56:31;8.15;;;5.28;;
60478;SDS011;46321;48.398;11.754;2022-08-24T04:58:57;7.72;;;5.13;;
60478;SDS011;46321;48.398;11.754;2022-08-24T05:01:23;8.48;;;5.65;;
60478;SDS011;46321;48.398;11.754;2022-08-24T05:03:51;6.90;;;5.22;;
60478;SDS011;46321;48.398;11.754;2022-08-24T05:06:18;7.97;;;5.30;;
60478;SDS011;46321;48.398;11.754;2022-08-24T05:08:45;7.93;;;5.97;;
60478;SDS011;46321;48.398;11.754;2022-08-24T05:11:12;8.50;;;6.05;;
60478;SDS011;46321;48.398;11.754;2022-08-24T05:13:38;11.88;;;6.30;;
60478;SDS011;46321;48.398;11.754;2022-08-24T05:16:08;8.50;;;5.97;;
60478;SDS011;46321;48.398;11.754;2022-08-24T05:18:35;11.10;;;6.10;;
60478;SDS011;46321;48.398;11.754;2022-08-24T05:21:01;6.97;;;5.53;;
60478;SDS011;46321;48.398;11.754;2022-08-24T05:23:34;8.93;;;5.97;;
60478;SDS011;46321;48.398;11.754;2022-08-24T05:26:08;7.68;;;5.80;;
60478;SDS011;46321;48.398;11.754;2022-08-24T05:28:37;8.82;;;5.93;;
60478;SDS011;46321;48.398;11.754;2022-08-24T05:31:22;9.95;;;6.13;;
60478;SDS011;46321;48.398;11.754;2022-08-24T05:33:51;10.40;;;6.78;;
60478;SDS011;46321;48.398;11.754;2022-08-24T05:36:24;10.98;;;6.28;;
60478;SDS011;46321;48.398;11.754;2022-08-24T05:38:52;10.13;;;6.25;;
60478;SDS011;46321;48.398;11.754;2022-08-24T05:41:19;10.50;;;6.80;;
60478;SDS011;46321;48.398;11.754;2022-08-24T05:43:45;8.70;;;6.22;;
60478;SDS011;46321;48.398;11.754;2022-08-24T05:46:11;9.77;;;6.80;;
60478;SDS011;46321;48.398;11.754;2022-08-24T05:48:37;8.68;;;6.10;;
60478;SDS011;46321;48.398;11.754;2022-08-24T05:51:03;8.85;;;6.00;;
60478;SDS011;46321;48.398;11.754;2022-08-24T05:53:29;10.95;;;6.35;;
60478;SDS011;46321;48.398;11.754;2022-08-24T05:55:55;8.57;;;5.68;;
60478;SDS011;46321;48.398;11.754;2022-08-24T05:58:20;8.38;;;5.90;;
60478;SDS011;46321;48.398;11.754;2022-08-24T06:00:46;8.52;;;5.78;;
60478;SDS011;46321;48.398;11.754;2022-08-24T06:03:12;8.07;;;5.65;;
60478;SDS011;46321;48.398;11.754;2022-08-24T06:05:39;10.02;;;6.30;;
60478;SDS011;46321;48.398;11.754;2022-08-24T06:08:05;7.70;;;5.45;;
60478;SDS011;46321;48.398;11.754;2022-08-24T06:10:31;6.68;;;5.15;;
60478;SDS011;46321;48.398;11.754;2022-08-24T06:12:57;7.82;;;5.20;;
60478;SDS011;46321;48.398;11.754;2022-08-24T06:15:22;8.50;;;5.10;;
60478;SDS011;46321;48.398;11.754;2022-08-24T06:17:48;7.55;;;5.85;;
60478;SDS011;46321;48.398;11.754;2022-08-24T06:20:14;7.13;;;5.47;;
60478;SDS011;46321;48.398;11.754;2022-08-24T06:22:39;7.10;;;5.63;;
60478;SDS011;46321;48.398;11.754;2022-08-24T06:25:08;7.30;;;5.40;;
60478;SDS011;46321;48.398;11.754;2022-08-24T06:27:51;8.50;;;5.60;;
60478;SDS011;46321;48.398;11.754;2022-08-24T06:30:17;8.38;;;5.32;;
60478;SDS011;46321;48.398;11.754;2022-08-24T06:32:42;8.05;;;5.95;;
60478;SDS011;46321;48.398;11.754;2022-08-24T06:35:08;6.63;;;5.32;;
60478;SDS011;46321;48.398;11.754;2022-08-24T06:37:33;8.27;;;6.28;;
60478;SDS011;46321;48.398;11.754;2022-08-24T06:39:59;10.18;;;6.28;;
60478;SDS011;46321;48.398;11.754;2022-08-24T06:42:24;6.57;;;5.05;;
60478;SDS011;46321;48.398;11.754;2022-08-24T06:44:51;7.60;;;5.50;;
60478;SDS011;46321;48.398;11.754;2022-08-24T06:47:16;7.10;;;5.50;;
60478;SDS011;46321;48.398;11.754;2022-08-24T06:49:42;6.57;;;5.03;;
60478;SDS011;46321;48.398;11.754;2022-08-24T06:52:08;8.18;;;5.38;;
60478;SDS011;46321;48.398;11.754;2022-08-24T06:54:35;7.50;;;5.32;;
60478;SDS011;46321;48.398;11.754;2022-08-24T06:57:01;8.20;;;5.43;;
60478;SDS011;46321;48.398;11.754;2022-08-24T06:59:26;7.90;;;5.55;;
60478;SDS011;46321;48.398;11.754;2022-08-24T07:01:53;7.20;;;5.20;;
60478;SDS011;46321;48.398;11.754;2022-08-24T07:04:20;7.22;;;5.07;;
60478;SDS011;46321;48.398;11.754;2022-08-24T07:06:46;5.60;;;4.75;;
60478;SDS011;46321;48.398;11.754;2022-08-24T07:09:11;7.47;;;4.60;;
60478;SDS011;46321;48.398;11.754;2022-08-24T07:11:37;6.72;;;4.78;;
60478;SDS011;46321;48.398;11.754;2022-08-24T07:14:02;7.68;;;4.85;;
60478;SDS011;46321;48.398;11.754;2022-08-24T07:16:28;7.18;;;5.00;;
60478;SDS011;46321;48.398;11.754;2022-08-24T07:18:54;5.47;;;4.15;;
60478;SDS011;46321;48.398;11.754;2022-08-24T07:21:20;7.95;;;4.75;;
60478;SDS011;46321;48.398;11.754;2022-08-24T07:23:46;11.18;;;4.65;;
60478;SDS011;46321;48.398;11.754;2022-08-24T07:26:15;7.30;;;4.82;;
60478;SDS011;46321;48.398;11.754;2022-08-24T07:28:43;6.88;;;5.07;;
60478;SDS011;46321;48.398;11.754;2022-08-24T07:31:09;9.13;;;5.78;;
60478;SDS011;46321;48.398;11.754;2022-08-24T07:33:37;9.45;;;5.00;;
60478;SDS011;46321;48.398;11.754;2022-08-24T07:36:02;9.38;;;5.05;;
60478;SDS011;46321;48.398;11.754;2022-08-24T07:38:28;6.88;;;4.70;;
60478;SDS011;46321;48.398;11.754;2022-08-24T07:40:53;8.55;;;5.80;;
60478;SDS011;46321;48.398;11.754;2022-08-24T07:43:19;6.20;;;5.07;;
60478;SDS011;46321;48.398;11.754;2022-08-24T07:45:48;6.47;;;4.80;;
60478;SDS011;46321;48.398;11.754;2022-08-24T07:48:15;6.60;;;4.50;;
60478;SDS011;46321;48.398;11.754;2022-08-24T07:50:40;5.43;;;4.30;;
60478;SDS011;46321;48.398;11.754;2022-08-24T07:53:06;5.57;;;4.22;;
60478;SDS011;46321;48.398;11.754;2022-08-24T07:55:31;5.80;;;4.28;;
60478;SDS011;46321;48.398;11.754;2022-08-24T07:57:56;4.27;;;3.43;;
60478;SDS011;46321;48.398;11.754;2022-08-24T08:00:23;4.90;;;3.78;;
60478;SDS011;46321;48.398;11.754;2022-08-24T08:02:48;6.13;;;4.20;;
60478;SDS011;46321;48.398;11.754;2022-08-24T08:05:14;6.13;;;3.38;;
60478;SDS011;46321;48.398;11.754;2022-08-24T08:07:41;4.95;;;3.88;;
60478;SDS011;46321;48.398;11.754;2022-08-24T08:10:07;6.78;;;4.05;;
60478;SDS011;46321;48.398;11.754;2022-08-24T08:12:33;8.32;;;3.30;;
60478;SDS011;46321;48.398;11.754;2022-08-24T08:14:59;5.38;;;3.75;;
60478;SDS011;46321;48.398;11.754;2022-08-24T08:17:24;5.28;;;3.90;;
60478;SDS011;46321;48.398;11.754;2022-08-24T08:19:50;6.32;;;3.20;;
60478;SDS011;46321;48.398;11.754;2022-08-24T08:22:15;5.43;;;3.20;;
60478;SDS011;46321;48.398;11.754;2022-08-24T08:24:59;5.20;;;3.80;;
60478;SDS011;46321;48.398;11.754;2022-08-24T08:27:24;4.60;;;3.47;;
60478;SDS011;46321;48.398;11.754;2022-08-24T08:29:50;5.65;;;2.97;;
60478;SDS011;46321;48.398;11.754;2022-08-24T08:32:15;4.15;;;3.55;;
60478;SDS011;46321;48.398;11.754;2022-08-24T08:34:44;6.50;;;3.90;;
60478;SDS011;46321;48.398;11.754;2022-08-24T08:37:10;5.03;;;3.80;;
60478;SDS011;46321;48.398;11.754;2022-08-24T08:39:36;4.22;;;3.50;;
60478;SDS011;46321;48.398;11.754;2022-08-24T08:53:26;5.95;;;3.30;;
60478;SDS011;46321;48.398;11.754;2022-08-24T08:56:19;4.03;;;3.08;;
60478;SDS011;46321;48.398;11.754;2022-08-24T08:58:57;2.70;;;2.22;;
60478;SDS011;46321;48.398;11.754;2022-08-24T09:04:28;2.75;;;2.45;;
60478;SDS011;46321;48.398;11.754;2022-08-24T09:15:51;2.83;;;2.53;;
60478;SDS011;46321;48.398;11.754;2022-08-24T09:18:48;3.25;;;1.95;;
60478;SDS011;46321;48.398;11.754;2022-08-24T09:21:26;3.42;;;2.28;;
60478;SDS011;46321;48.398;11.754;2022-08-24T09:29:17;2.47;;;1.80;;
60478;SDS011;46321;48.398;11.754;2022-08-24T09:34:59;3.03;;;2.15;;
60478;SDS011;46321;48.398;11.754;2022-08-24T09:40:02;2.88;;;2.10;;
60478;SDS011;46321;48.398;11.754;2022-08-24T10:01:50;1.73;;;1.58;;
60478;SDS011;46321;48.398;11.754;2022-08-24T10:04:23;3.33;;;1.65;;
60478;SDS011;46321;48.398;11.754;2022-08-24T10:07:10;1.50;;;1.40;;
60478;SDS011;46321;48.398;11.754;2022-08-24T10:12:34;2.85;;;1.70;;
60478;SDS011;46321;48.398;11.754;2022-08-24T10:25:41;2.65;;;1.90;;
60478;SDS011;46321;48.398;11.754;2022-08-24T10:28:24;2.28;;;1.80;;
60478;SDS011;46321;48.398;11.754;2022-08-24T10:31:02;4.28;;;1.88;;
60478;SDS011;46321;48.398;11.754;2022-08-24T10:39:33;2.25;;;1.88;;
60478;SDS011;46321;48.398;11.754;2022-08-24T10:53:50;1.90;;;1.70;;
60478;SDS011;46321;48.398;11.754;2022-08-24T10:56:18;6.88;;;1.70;;
60478;SDS011;46321;48.398;11.754;2022-08-24T11:06:38;2.20;;;1.50;;
60478;SDS011;46321;48.398;11.754;2022-08-24T11:09:16;4.25;;;1.60;;
60478;SDS011;46321;48.398;11.754;2022-08-24T11:11:43;3.20;;;1.35;;
60478;SDS011;46321;48.398;11.754;2022-08-24T11:16:41;3.35;;;1.60;;
60478;SDS011;46321;48.398;11.754;2022-08-24T11:19:10;4.68;;;1.90;;
60478;SDS011;46321;48.398;11.754;2022-08-24T11:21:48;4.50;;;1.90;;
60478;SDS011;46321;48.398;11.754;2022-08-24T11:35:23;2.60;;;1.90;;
60478;SDS011;46321;48.398;11.754;2022-08-24T11:38:41;3.95;;;1.90;;
60478;SDS011;46321;48.398;11.754;2022-08-24T11:46:23;3.55;;;1.88;;
60478;SDS011;46321;48.398;11.754;2022-08-24T11:51:30;3.13;;;1.90;;
60478;SDS011;46321;48.398;11.754;2022-08-24T11:57:04;3.38;;;1.45;;
60478;SDS011;46321;48.398;11.754;2022-08-24T12:11:35;3.70;;;2.22;;
60478;SDS011;46321;48.398;11.754;2022-08-24T12:14:14;2.75;;;1.80;;
60478;SDS011;46321;48.398;11.754;2022-08-24T12:19:35;2.10;;;1.80;;
60478;SDS011;46321;48.398;11.754;2022-08-24T12:22:06;2.00;;;1.77;;
60478;SDS011;46321;48.398;11.754;2022-08-24T12:24:44;3.53;;;2.03;;
60478;SDS011;46321;48.398;11.754;2022-08-24T12:27:18;2.00;;;1.80;;
60478;SDS011;46321;48.398;11.754;2022-08-24T12:30:08;3.35;;;1.98;;
60478;SDS011;46321;48.398;11.754;2022-08-24T12:32:47;2.33;;;1.70;;
60478;SDS011;46321;48.398;11.754;2022-08-24T12:35:33;1.98;;;1.70;;
60478;SDS011;46321;48.398;11.754;2022-08-24T12:38:11;2.08;;;1.50;;
60478;SDS011;46321;48.398;11.754;2022-08-24T12:40:48;2.25;;;1.50;;
60478;SDS011;46321;48.398;11.754;2022-08-24T12:43:34;3.58;;;1.85;;
60478;SDS011;46321;48.398;11.754;2022-08-24T12:46:04;2.00;;;1.70;;
60478;SDS011;46321;48.398;11.754;2022-08-24T12:48:34;4.78;;;1.98;;
60478;SDS011;46321;48.398;11.754;2022-08-24T12:53:49;2.45;;;1.70;;
60478;SDS011;46321;48.398;11.754;2022-08-24T12:56:30;2.00;;;1.80;;
60478;SDS011;46321;48.398;11.754;2022-08-24T13:02:54;2.28;;;1.58;;
60478;SDS011;46321;48.398;11.754;2022-08-24T13:15:09;2.50;;;1.27;;
60478;SDS011;46321;48.398;11.754;2022-08-24T13:20:26;1.40;;;1.30;;
60478;SDS011;46321;48.398;11.754;2022-08-24T13:23:03;3.33;;;1.40;;
60478;SDS011;46321;48.398;11.754;2022-08-24T13:28:13;2.03;;;1.60;;
60478;SDS011;46321;48.398;11.754;2022-08-24T13:39:10;1.30;;;1.20;;
60478;SDS011;46321;48.398;11.754;2022-08-24T13:47:07;1.73;;;1.30;;
60478;SDS011;46321;48.398;11.754;2022-08-24T13:49:49;2.65;;;1.38;;
60478;SDS011;46321;48.398;11.754;2022-08-24T14:00:39;4.35;;;1.70;;
60478;SDS011;46321;48.398;11.754;2022-08-24T14:05:50;1.13;;;1.02;;
60478;SDS011;46321;48.398;11.754;2022-08-24T14:11:30;1.38;;;1.27;;
60478;SDS011;46321;48.398;11.754;2022-08-24T14:19:58;2.53;;;1.20;;
60478;SDS011;46321;48.398;11.754;2022-08-24T14:22:36;1.55;;;1.13;;
60478;SDS011;46321;48.398;11.754;2022-08-24T14:33:34;1.30;;;1.10;;
60478;SDS011;46321;48.398;11.754;2022-08-24T14:36:13;1.65;;;1.27;;
60478;SDS011;46321;48.398;11.754;2022-08-24T14:41:26;1.70;;;1.23;;
60478;SDS011;46321;48.398;11.754;2022-08-24T14:44:24;1.70;;;1.30;;
60478;SDS011;46321;48.398;11.754;2022-08-24T14:47:13;1.70;;;1.55;;
60478;SDS011;46321;48.398;11.754;2022-08-24T14:55:25;1.63;;;1.48;;
60478;SDS011;46321;48.398;11.754;2022-08-24T14:57:57;1.25;;;1.15;;
60478;SDS011;46321;48.398;11.754;2022-08-24T15:00:46;1.65;;;1.20;;
60478;SDS011;46321;48.398;11.754;2022-08-24T15:09:22;2.40;;;1.67;;
60478;SDS011;46321;48.398;11.754;2022-08-24T15:11:51;1.80;;;1.38;;
60478;SDS011;46321;48.398;11.754;2022-08-24T15:14:44;2.22;;;1.20;;
60478;SDS011;46321;48.398;11.754;2022-08-24T15:17:16;2.40;;;1.50;;
60478;SDS011;46321;48.398;11.754;2022-08-24T15:20:07;3.80;;;1.75;;
60478;SDS011;46321;48.398;11.754;2022-08-24T15:22:45;4.13;;;1.67;;
60478;SDS011;46321;48.398;11.754;2022-08-24T15:25:31;1.80;;;1.50;;
60478;SDS011;46321;48.398;11.754;2022-08-24T15:28:06;1.83;;;1.52;;
60478;SDS011;46321;48.398;11.754;2022-08-24T15:30:38;1.77;;;1.60;;
60478;SDS011;46321;48.398;11.754;2022-08-24T15:33:10;3.30;;;1.70;;
60478;SDS011;46321;48.398;11.754;2022-08-24T15:35:42;3.25;;;1.42;;
60478;SDS011;46321;48.398;11.754;2022-08-24T15:38:22;2.13;;;1.35;;
60478;SDS011;46321;48.398;11.754;2022-08-24T15:41:02;1.40;;;1.20;;
60478;SDS011;46321;48.398;11.754;2022-08-24T15:43:32;1.58;;;1.40;;
60478;SDS011;46321;48.398;11.754;2022-08-24T15:46:00;1.73;;;1.40;;
60478;SDS011;46321;48.398;11.754;2022-08-24T15:48:26;1.98;;;1.42;;
60478;SDS011;46321;48.398;11.754;2022-08-24T15:50:54;2.28;;;1.45;;
60478;SDS011;46321;48.398;11.754;2022-08-24T15:58:45;1.73;;;1.50;;
60478;SDS011;46321;48.398;11.754;2022-08-24T16:03:56;4.00;;;1.55;;
60478;SDS011;46321;48.398;11.754;2022-08-24T16:06:45;3.63;;;1.40;;
60478;SDS011;46321;48.398;11.754;2022-08-24T16:09:14;4.68;;;1.60;;
60478;SDS011;46321;48.398;11.754;2022-08-24T16:17:40;1.45;;;1.35;;
60478;SDS011;46321;48.398;11.754;2022-08-24T16:20:14;1.83;;;1.27;;
60478;SDS011;46321;48.398;11.754;2022-08-24T16:22:54;1.70;;;1.35;;
60478;SDS011;46321;48.398;11.754;2022-08-24T16:25:35;2.22;;;1.17;;
60478;SDS011;46321;48.398;11.754;2022-08-24T16:28:07;2.25;;;1.40;;
60478;SDS011;46321;48.398;11.754;2022-08-24T16:31:03;2.05;;;1.50;;
60478;SDS011;46321;48.398;11.754;2022-08-24T16:36:03;2.30;;;1.73;;
60478;SDS011;46321;48.398;11.754;2022-08-24T16:38:32;2.15;;;1.40;;
60478;SDS011;46321;48.398;11.754;2022-08-24T16:40:59;2.00;;;1.48;;
60478;SDS011;46321;48.398;11.754;2022-08-24T16:43:30;2.17;;;1.60;;
60478;SDS011;46321;48.398;11.754;2022-08-24T16:45:56;1.70;;;1.50;;
60478;SDS011;46321;48.398;11.754;2022-08-24T16:48:23;1.63;;;1.40;;
60478;SDS011;46321;48.398;11.754;2022-08-24T16:50:49;6.73;;;1.30;;
60478;SDS011;46321;48.398;11.754;2022-08-24T16:53:15;2.13;;;1.40;;
60478;SDS011;46321;48.398;11.754;2022-08-24T16:55:40;1.63;;;1.38;;
60478;SDS011;46321;48.398;11.754;2022-08-24T16:58:05;1.80;;;1.40;;
60478;SDS011;46321;48.398;11.754;2022-08-24T17:00:31;2.50;;;1.60;;
60478;SDS011;46321;48.398;11.754;2022-08-24T17:02:56;2.13;;;1.60;;
60478;SDS011;46321;48.398;11.754;2022-08-24T17:05:22;1.97;;;1.67;;
60478;SDS011;46321;48.398;11.754;2022-08-24T17:07:47;2.85;;;1.48;;
60478;SDS011;46321;48.398;11.754;2022-08-24T17:10:16;1.58;;;1.33;;
60478;SDS011;46321;48.398;11.754;2022-08-24T17:12:43;2.47;;;1.48;;
60478;SDS011;46321;48.398;11.754;2022-08-24T17:15:09;1.90;;;1.50;;
60478;SDS011;46321;48.398;11.754;2022-08-24T17:17:36;3.50;;;1.40;;
60478;SDS011;46321;48.398;11.754;2022-08-24T17:20:03;2.17;;;1.27;;
60478;SDS011;46321;48.398;11.754;2022-08-24T17:22:31;2.10;;;1.60;;
60478;SDS011;46321;48.398;11.754;2022-08-24T17:24:57;1.90;;;1.52;;
60478;SDS011;46321;48.398;11.754;2022-08-24T17:27:23;2.47;;;1.53;;
60478;SDS011;46321;48.398;11.754;2022-08-24T17:29:56;2.25;;;1.52;;
60478;SDS011;46321;48.398;11.754;2022-08-24T17:32:23;4.07;;;1.52;;
60478;SDS011;46321;48.398;11.754;2022-08-24T17:34:49;1.60;;;1.20;;
60478;SDS011;46321;48.398;11.754;2022-08-24T17:37:14;3.83;;;1.58;;
60478;SDS011;46321;48.398;11.754;2022-08-24T17:39:40;1.83;;;1.50;;
60478;SDS011;46321;48.398;11.754;2022-08-24T17:42:06;2.73;;;1.43;;
60478;SDS011;46321;48.398;11.754;2022-08-24T17:44:32;1.77;;;1.40;;
60478;SDS011;46321;48.398;11.754;2022-08-24T17:46:58;2.45;;;1.40;;
60478;SDS011;46321;48.398;11.754;2022-08-24T17:49:27;2.83;;;1.50;;
60478;SDS011;46321;48.398;11.754;2022-08-24T17:51:52;2.00;;;1.40;;
60478;SDS011;46321;48.398;11.754;2022-08-24T17:54:19;1.95;;;1.63;;
60478;SDS011;46321;48.398;11.754;2022-08-24T17:56:45;2.28;;;1.33;;
60478;SDS011;46321;48.398;11.754;2022-08-24T17:59:15;1.98;;;1.40;;
60478;SDS011;46321;48.398;11.754;2022-08-24T18:01:56;3.00;;;1.45;;
60478;SDS011;46321;48.398;11.754;2022-08-24T18:04:24;1.98;;;1.40;;
60478;SDS011;46321;48.398;11.754;2022-08-24T18:06:58;2.15;;;1.50;;
60478;SDS011;46321;48.398;11.754;2022-08-24T18:09:37;4.50;;;1.73;;
60478;SDS011;46321;48.398;11.754;2022-08-24T18:12:05;2.05;;;1.67;;
60478;SDS011;46321;48.398;11.754;2022-08-24T18:14:32;3.05;;;2.05;;
60478;SDS011;46321;48.398;11.754;2022-08-24T18:17:00;2.63;;;1.90;;
60478;SDS011;46321;48.398;11.754;2022-08-24T18:19:28;3.35;;;1.98;;
60478;SDS011;46321;48.398;11.754;2022-08-24T18:21:55;3.80;;;2.20;;
60478;SDS011;46321;48.398;11.754;2022-08-24T18:24:20;3.17;;;2.13;;
60478;SDS011;46321;48.398;11.754;2022-08-24T18:26:45;7.27;;;2.43;;
60478;SDS011;46321;48.398;11.754;2022-08-24T18:29:14;3.17;;;1.85;;
60478;SDS011;46321;48.398;11.754;2022-08-24T18:31:41;2.72;;;2.17;;
60478;SDS011;46321;48.398;11.754;2022-08-24T18:34:07;2.92;;;2.13;;
60478;SDS011;46321;48.398;11.754;2022-08-24T18:36:35;2.83;;;2.00;;
60478;SDS011;46321;48.398;11.754;2022-08-24T18:39:00;2.85;;;2.13;;
60478;SDS011;46321;48.398;11.754;2022-08-24T18:41:29;2.80;;;2.00;;
60478;SDS011;46321;48.398;11.754;2022-08-24T18:43:58;5.00;;;2.30;;
60478;SDS011;46321;48.398;11.754;2022-08-24T18:46:25;4.55;;;2.65;;
60478;SDS011;46321;48.398;11.754;2022-08-24T18:48:54;4.47;;;2.70;;
60478;SDS011;46321;48.398;11.754;2022-08-24T18:51:19;3.58;;;2.72;;
60478;SDS011;46321;48.398;11.754;2022-08-24T18:53:48;4.22;;;3.00;;
60478;SDS011;46321;48.398;11.754;2022-08-24T18:56:14;3.97;;;2.70;;
60478;SDS011;46321;48.398;11.754;2022-08-24T18:58:40;3.97;;;2.75;;
60478;SDS011;46321;48.398;11.754;2022-08-24T19:01:05;3.53;;;2.70;;
60478;SDS011;46321;48.398;11.754;2022-08-24T19:03:31;5.55;;;2.55;;
60478;SDS011;46321;48.398;11.754;2022-08-24T19:05:56;3.72;;;2.92;;
60478;SDS011;46321;48.398;11.754;2022-08-24T19:08:22;3.33;;;2.83;;
60478;SDS011;46321;48.398;11.754;2022-08-24T19:10:47;3.53;;;2.92;;
60478;SDS011;46321;48.398;11.754;2022-08-24T19:13:14;4.55;;;3.00;;
60478;SDS011;46321;48.398;11.754;2022-08-24T19:15:42;4.45;;;2.95;;
60478;SDS011;46321;48.398;11.754;2022-08-24T19:18:12;4.15;;;3.05;;
60478;SDS011;46321;48.398;11.754;2022-08-24T19:20:41;4.05;;;2.90;;
60478;SDS011;46321;48.398;11.754;2022-08-24T19:23:13;6.93;;;3.00;;
60478;SDS011;46321;48.398;11.754;2022-08-24T19:25:43;3.17;;;2.45;;
60478;SDS011;46321;48.398;11.754;2022-08-24T19:28:09;4.55;;;3.22;;